createdAt,value
2023-03-27T00:01:47.796Z,67.51
2023-03-27T00:04:18.274Z,66.56
2023-03-27T00:06:49.082Z,66.40
2023-03-27T00:09:19.173Z,66.73
2023-03-27T00:11:48.101Z,66.63
2023-03-27T00:14:17.409Z,67.08
2023-03-27T00:16:46.391Z,66.68
2023-03-27T00:19:14.883Z,66.50
2023-03-27T00:21:45.080Z,66.31
2023-03-27T00:24:15.961Z,66.70
2023-03-27T00:26:44.843Z,67.33
2023-03-27T00:29:13.945Z,66.96
2023-03-27T00:31:42.312Z,67.68
2023-03-27T00:34:12.303Z,67.21
2023-03-27T00:36:40.917Z,67.62
2023-03-27T00:39:10.490Z,68.07
2023-03-27T00:41:40.368Z,67.53
2023-03-27T00:44:27.031Z,67.11
2023-03-27T00:46:57.672Z,67.59
2023-03-27T00:49:29.764Z,67.57
2023-03-27T00:51:59.142Z,66.72
2023-03-27T00:54:31.792Z,65.82
2023-03-27T00:57:06.349Z,66.38
2023-03-27T00:59:40.797Z,66.11
2023-03-27T01:02:10.991Z,66.60
2023-03-27T01:04:41.300Z,67.20
2023-03-27T01:07:11.422Z,67.53
2023-03-27T01:09:40.948Z,67.33
2023-03-27T01:12:28.745Z,67.48
2023-03-27T01:15:13.227Z,68.43
2023-03-27T01:18:02.552Z,69.70
2023-03-27T01:21:12.413Z,69.98
2023-03-27T01:24:28.637Z,69.64
2023-03-27T01:27:03.875Z,69.99
2023-03-27T01:30:02.743Z,69.77
2023-03-27T01:33:28.606Z,70.08
2023-03-27T01:36:34.793Z,70.47
2023-03-27T01:39:34.588Z,70.58
2023-03-27T01:42:20.034Z,72.15
2023-03-27T01:44:55.990Z,71.72
2023-03-27T01:47:37.788Z,72.25
2023-03-27T01:50:20.000Z,73.30
2023-03-27T01:52:56.681Z,73.26
2023-03-27T01:55:32.324Z,72.67
2023-03-27T01:58:06.300Z,73.77
2023-03-27T02:00:51.603Z,73.30
2023-03-27T02:03:27.700Z,72.46
2023-03-27T02:06:01.560Z,72.14
2023-03-27T02:08:36.190Z,72.41
2023-03-27T02:11:18.125Z,72.29
2023-03-27T02:13:52.018Z,72.29
2023-03-27T02:16:26.736Z,72.52
2023-03-27T02:19:00.844Z,71.86
2023-03-27T02:21:31.287Z,71.55
2023-03-27T02:24:03.611Z,71.02
2023-03-27T02:26:34.408Z,70.44
2023-03-27T02:29:36.589Z,70.89
2023-03-27T02:32:20.939Z,71.16
2023-03-27T02:35:05.405Z,71.62
2023-03-27T02:37:49.793Z,71.77
2023-03-27T02:40:46.332Z,71.99
2023-03-27T02:43:40.334Z,71.68
2023-03-27T02:46:21.664Z,71.17
2023-03-27T02:48:53.945Z,71.61
2023-03-27T02:51:29.347Z,71.22
2023-03-27T02:54:03.884Z,72.39
2023-03-27T02:56:41.258Z,72.27
2023-03-27T02:59:14.452Z,72.71
2023-03-27T03:01:45.501Z,72.82
2023-03-27T03:04:26.217Z,72.85
2023-03-27T03:07:16.443Z,72.46
2023-03-27T03:09:45.988Z,72.40
2023-03-27T03:12:14.396Z,72.06
2023-03-27T03:14:46.890Z,72.25
2023-03-27T03:17:17.467Z,72.55
2023-03-27T03:19:46.890Z,72.83
2023-03-27T03:22:15.986Z,73.31
2023-03-27T03:24:44.981Z,73.44
2023-03-27T03:27:21.259Z,72.91
2023-03-27T03:30:09.668Z,72.86
2023-03-27T03:32:47.416Z,71.93
2023-03-27T03:35:16.388Z,72.93
2023-03-27T03:37:51.199Z,72.46
2023-03-27T03:40:22.202Z,73.76
2023-03-27T03:42:55.911Z,73.76
2023-03-27T03:45:29.878Z,74.51
2023-03-27T03:47:58.605Z,74.68
2023-03-27T03:50:27.169Z,74.72
2023-03-27T03:52:55.581Z,75.23
2023-03-27T03:55:25.638Z,75.52
2023-03-27T03:57:54.061Z,76.10
2023-03-27T04:00:29.352Z,75.82
2023-03-27T04:02:59.493Z,76.28
2023-03-27T04:05:28.276Z,76.13
2023-03-27T04:08:03.143Z,75.81
2023-03-27T04:10:51.777Z,75.97
2023-03-27T04:13:34.381Z,75.45
2023-03-27T04:16:14.886Z,75.49
2023-03-27T04:18:50.709Z,75.14
2023-03-27T04:21:22.085Z,74.05
2023-03-27T04:23:51.334Z,74.11
2023-03-27T04:26:27.709Z,73.11
2023-03-27T04:29:14.400Z,72.06
2023-03-27T04:32:02.633Z,72.14
2023-03-27T04:34:43.441Z,72.91
2023-03-27T04:37:45.710Z,73.99
2023-03-27T04:40:49.287Z,74.32
2023-03-27T04:43:19.011Z,73.98
2023-03-27T04:45:48.405Z,74.91
2023-03-27T04:48:18.995Z,74.65
2023-03-27T04:50:51.781Z,74.41
2023-03-27T04:53:38.116Z,74.40
2023-03-27T04:56:09.591Z,74.39
2023-03-27T04:58:41.680Z,73.86
2023-03-27T05:01:14.507Z,74.48
2023-03-27T05:04:16.773Z,74.71
2023-03-27T05:07:05.921Z,75.08
2023-03-27T05:09:34.343Z,74.83
2023-03-27T05:12:03.273Z,75.24
2023-03-27T05:14:38.199Z,74.30
2023-03-27T05:17:10.519Z,74.18
2023-03-27T05:19:43.463Z,74.51
2023-03-27T05:22:12.079Z,73.94
2023-03-27T05:24:49.950Z,74.84
2023-03-27T05:27:19.405Z,74.53
2023-03-27T05:29:51.285Z,74.12
2023-03-27T05:32:19.652Z,75.37
2023-03-27T05:34:54.639Z,75.55
2023-03-27T05:37:26.361Z,76.98
2023-03-27T05:40:25.181Z,79.69
2023-03-27T05:42:57.083Z,81.18
2023-03-27T05:45:30.151Z,81.17
2023-03-27T05:48:00.975Z,80.97
2023-03-27T05:50:34.149Z,81.69
2023-03-27T05:53:08.247Z,81.19
2023-03-27T05:55:40.419Z,81.28
2023-03-27T05:58:10.238Z,80.98
2023-03-27T06:00:42.186Z,81.47
2023-03-27T06:03:14.416Z,81.37
2023-03-27T06:06:01.059Z,80.07
2023-03-27T06:08:36.759Z,78.66
2023-03-27T06:11:13.471Z,78.63
2023-03-27T06:13:48.819Z,79.33
2023-03-27T06:16:21.636Z,79.28
2023-03-27T06:19:02.936Z,79.41
2023-03-27T06:21:33.342Z,79.02
2023-03-27T06:24:04.069Z,78.86
2023-03-27T06:26:32.684Z,78.95
2023-03-27T06:29:08.585Z,78.43
2023-03-27T06:31:40.374Z,79.03
2023-03-27T06:34:15.211Z,79.06
2023-03-27T06:37:05.398Z,76.91
2023-03-27T06:39:41.082Z,75.49
2023-03-27T06:42:10.641Z,74.54
2023-03-27T06:44:51.184Z,73.76
2023-03-27T06:47:51.673Z,73.81
2023-03-27T06:50:40.742Z,73.59
2023-03-27T06:53:25.720Z,73.99
2023-03-27T06:55:54.992Z,73.95
2023-03-27T06:58:25.157Z,72.87
2023-03-27T07:00:53.720Z,74.34
2023-03-27T07:03:24.069Z,73.77
2023-03-27T07:06:19.364Z,73.28
2023-03-27T07:08:57.510Z,72.42
2023-03-27T07:11:27.057Z,72.36
2023-03-27T07:13:57.974Z,71.67
2023-03-27T07:16:28.517Z,71.49
2023-03-27T07:19:00.892Z,72.50
2023-03-27T07:21:32.276Z,71.36
2023-03-27T07:24:03.595Z,71.24
2023-03-27T07:26:35.049Z,71.37
2023-03-27T07:29:10.884Z,71.31
2023-03-27T07:31:55.385Z,70.74
2023-03-27T07:34:39.676Z,70.36
2023-03-27T07:37:11.519Z,69.99
2023-03-27T07:39:50.481Z,70.48
2023-03-27T07:42:19.888Z,69.68
2023-03-27T07:45:04.640Z,68.92
2023-03-27T07:47:33.665Z,68.92
2023-03-27T07:50:03.435Z,67.76
2023-03-27T07:52:34.811Z,68.42
2023-03-27T07:55:09.196Z,68.01
2023-03-27T07:57:59.938Z,66.20
2023-03-27T08:00:33.948Z,67.27
2023-03-27T08:03:14.389Z,66.16
2023-03-27T08:05:58.923Z,64.42
2023-03-27T08:08:29.910Z,63.29
2023-03-27T08:11:03.572Z,64.02
2023-03-27T08:13:37.423Z,64.12
2023-03-27T08:16:13.524Z,66.61
2023-03-27T08:18:43.676Z,67.25
2023-03-27T08:21:13.678Z,66.51
2023-03-27T08:23:45.656Z,67.47
2023-03-27T08:26:34.025Z,66.92
2023-03-27T08:29:09.647Z,67.06
2023-03-27T08:31:39.551Z,66.12
2023-03-27T08:34:08.771Z,66.38
2023-03-27T08:36:45.669Z,66.48
2023-03-27T08:39:15.786Z,66.22
2023-03-27T08:42:08.935Z,65.41
2023-03-27T08:44:41.156Z,66.57
2023-03-27T08:47:20.759Z,66.24
2023-03-27T08:49:59.471Z,66.10
2023-03-27T08:53:01.206Z,65.04
2023-03-27T08:55:41.706Z,64.82
2023-03-27T08:58:26.159Z,64.04
2023-03-27T09:01:19.035Z,62.88
2023-03-27T09:03:58.273Z,63.13
2023-03-27T09:06:34.541Z,61.42
2023-03-27T09:09:12.807Z,60.31
2023-03-27T09:12:00.934Z,61.56
2023-03-27T09:14:39.893Z,59.65
2023-03-27T09:17:18.797Z,58.90
2023-03-27T09:19:54.823Z,59.41
2023-03-27T09:22:32.798Z,60.77
2023-03-27T09:25:23.351Z,65.94
2023-03-27T09:28:22.630Z,67.12
2023-03-27T09:31:01.880Z,67.79
2023-03-27T09:33:41.474Z,69.95
2023-03-27T09:36:11.458Z,70.81
2023-03-27T09:38:44.686Z,71.12
2023-03-27T09:41:26.551Z,71.48
2023-03-27T09:44:02.614Z,70.94
2023-03-27T09:46:37.266Z,71.83
2023-03-27T09:49:14.122Z,71.76
2023-03-27T09:51:49.018Z,68.17
2023-03-27T09:54:56.145Z,67.82
2023-03-27T09:57:37.584Z,65.64
2023-03-27T10:00:27.035Z,62.31
2023-03-27T10:03:05.929Z,61.36
2023-03-27T10:05:38.925Z,60.93
2023-03-27T10:08:32.492Z,57.36
2023-03-27T10:11:20.716Z,61.86
2023-03-27T10:13:53.314Z,61.85
2023-03-27T10:16:25.055Z,63.67
2023-03-27T10:19:23.477Z,65.87
2023-03-27T10:21:53.314Z,67.67
2023-03-27T10:24:34.204Z,66.91
2023-03-27T10:27:21.424Z,64.81
2023-03-27T10:30:32.168Z,65.09
2023-03-27T10:33:29.852Z,67.32
2023-03-27T10:36:13.331Z,65.24
2023-03-27T10:38:44.038Z,63.12
2023-03-27T10:41:34.369Z,62.71
2023-03-27T10:44:08.225Z,64.16
2023-03-27T10:46:41.113Z,60.91
2023-03-27T10:49:28.814Z,58.28
2023-03-27T10:52:14.859Z,57.95
2023-03-27T10:55:18.981Z,61.04
2023-03-27T10:57:54.581Z,59.53
2023-03-27T11:00:36.711Z,59.47
2023-03-27T11:03:17.797Z,59.92
2023-03-27T11:05:56.367Z,57.63
2023-03-27T11:08:58.369Z,57.33
2023-03-27T11:11:31.975Z,58.99
2023-03-27T11:14:07.901Z,59.79
2023-03-27T11:16:41.125Z,57.82
2023-03-27T11:19:45.070Z,57.47
2023-03-27T11:22:34.479Z,56.29
2023-03-27T11:25:21.022Z,57.90
2023-03-27T11:28:02.601Z,58.65
2023-03-27T11:30:44.417Z,56.57
2023-03-27T11:33:33.330Z,57.60
2023-03-27T11:36:34.952Z,56.53
2023-03-27T11:39:23.339Z,54.35
2023-03-27T11:41:58.365Z,53.72
2023-03-27T11:44:30.376Z,53.98
2023-03-27T11:47:30.932Z,54.11
2023-03-27T11:50:26.164Z,52.76
2023-03-27T11:53:24.951Z,50.96
2023-03-27T11:56:31.887Z,50.36
2023-03-27T11:59:39.489Z,49.35
2023-03-27T12:02:46.780Z,47.75
2023-03-27T12:05:26.147Z,47.19
2023-03-27T12:08:11.619Z,47.97
2023-03-27T12:10:48.767Z,47.59
2023-03-27T12:14:18.555Z,45.48
2023-03-27T12:17:43.496Z,46.08
2023-03-27T12:20:56.705Z,44.07
2023-03-27T12:24:31.561Z,45.03
2023-03-27T12:27:50.802Z,46.31
2023-03-27T12:30:51.163Z,48.52
2023-03-27T12:33:38.967Z,50.86
2023-03-27T12:36:13.570Z,48.21
2023-03-27T12:38:45.047Z,47.59
2023-03-27T12:41:25.589Z,47.12
2023-03-27T12:44:04.699Z,48.03
2023-03-27T12:46:40.061Z,44.13
2023-03-27T12:49:47.443Z,45.00
2023-03-27T12:52:25.429Z,46.71
2023-03-27T12:55:33.357Z,46.07
2023-03-27T12:58:04.727Z,46.05
2023-03-27T13:01:00.899Z,45.27
2023-03-27T13:04:32.884Z,45.33
2023-03-27T13:07:14.077Z,45.11
2023-03-27T13:10:18.820Z,44.08
2023-03-27T13:13:09.541Z,45.07
2023-03-27T13:16:07.775Z,45.16
2023-03-27T13:18:59.891Z,47.04
2023-03-27T13:21:41.565Z,45.10
2023-03-27T13:24:44.944Z,43.01
2023-03-27T13:27:35.740Z,43.71
2023-03-27T13:30:08.078Z,44.04
2023-03-27T13:33:16.482Z,39.85
2023-03-27T13:36:05.988Z,40.88
2023-03-27T13:39:18.551Z,40.91
2023-03-27T13:42:03.153Z,41.18
2023-03-27T13:44:54.548Z,40.09
2023-03-27T13:48:13.201Z,39.76
2023-03-27T13:51:32.916Z,40.74
2023-03-27T13:54:48.625Z,41.61
2023-03-27T13:57:36.043Z,41.24
2023-03-27T14:00:34.897Z,39.53
2023-03-27T14:03:50.319Z,40.66
2023-03-27T14:06:52.842Z,40.03
2023-03-27T14:09:56.894Z,40.48
2023-03-27T14:12:58.015Z,40.75
2023-03-27T14:16:51.483Z,42.48
2023-03-27T14:19:42.480Z,43.29
2023-03-27T14:22:26.411Z,41.96
2023-03-27T14:25:02.795Z,42.44
2023-03-27T14:27:46.854Z,42.30
2023-03-27T14:30:23.891Z,41.54
2023-03-27T14:33:11.778Z,42.74
2023-03-27T14:35:45.950Z,44.57
2023-03-27T14:38:22.944Z,43.75
2023-03-27T14:40:54.680Z,44.20
2023-03-27T14:43:35.700Z,43.92
2023-03-27T14:46:07.333Z,48.24
2023-03-27T14:48:38.930Z,50.02
2023-03-27T14:51:14.589Z,51.26
2023-03-27T14:53:50.952Z,51.82
2023-03-27T14:56:37.837Z,51.15
2023-03-27T14:59:35.660Z,52.39
2023-03-27T15:02:20.620Z,53.17
2023-03-27T15:04:53.894Z,52.36
2023-03-27T15:07:28.694Z,52.58
2023-03-27T15:10:28.692Z,51.38
2023-03-27T15:13:18.001Z,51.90
2023-03-27T15:15:56.892Z,52.45
2023-03-27T15:18:40.070Z,52.40
2023-03-27T15:21:17.082Z,52.51
2023-03-27T15:24:05.676Z,53.30
2023-03-27T15:26:36.731Z,53.61
2023-03-27T15:29:14.169Z,52.93
2023-03-27T15:32:11.891Z,52.89
2023-03-27T15:34:47.676Z,53.67
2023-03-27T15:37:23.335Z,52.69
2023-03-27T15:40:09.467Z,52.71
2023-03-27T15:42:48.235Z,53.39
2023-03-27T15:45:25.071Z,52.90
2023-03-27T15:48:06.887Z,53.13
2023-03-27T15:50:35.729Z,53.06
2023-03-27T15:53:04.411Z,50.36
2023-03-27T15:55:38.066Z,49.44
2023-03-27T15:58:23.216Z,48.27
2023-03-27T16:00:55.061Z,47.13
2023-03-27T16:03:29.391Z,48.10
2023-03-27T16:06:00.153Z,48.50
2023-03-27T16:08:34.838Z,47.24
2023-03-27T16:11:06.347Z,47.54
2023-03-27T16:13:37.426Z,50.98
2023-03-27T16:16:26.064Z,53.92
2023-03-27T16:18:59.096Z,55.04
2023-03-27T16:21:28.828Z,54.71
2023-03-27T16:23:57.365Z,54.91
2023-03-27T16:26:30.600Z,54.51
2023-03-27T16:29:04.873Z,53.39
2023-03-27T16:31:33.568Z,54.06
2023-03-27T16:34:12.889Z,54.13
2023-03-27T16:36:51.568Z,54.99
2023-03-27T16:39:20.039Z,55.55
2023-03-27T16:41:48.826Z,55.31
2023-03-27T16:44:17.412Z,56.47
2023-03-27T16:46:46.494Z,56.45
2023-03-27T16:49:16.375Z,55.87
2023-03-27T16:51:45.039Z,54.58
2023-03-27T16:54:14.170Z,53.17
2023-03-27T16:56:42.558Z,52.81
2023-03-27T16:59:11.438Z,52.30
2023-03-27T17:01:40.881Z,51.47
2023-03-27T17:04:09.643Z,52.06
2023-03-27T17:06:40.294Z,51.70
2023-03-27T17:09:11.099Z,49.21
2023-03-27T17:11:40.927Z,48.99
2023-03-27T17:14:10.672Z,48.16
2023-03-27T17:16:40.263Z,48.75
2023-03-27T17:19:10.383Z,49.48
2023-03-27T17:21:43.420Z,50.57
2023-03-27T17:24:12.219Z,51.42
2023-03-27T17:26:40.733Z,51.45
2023-03-27T17:29:11.391Z,51.33
2023-03-27T17:31:42.181Z,52.14
2023-03-27T17:34:13.902Z,52.67
2023-03-27T17:36:52.265Z,52.68
2023-03-27T17:39:26.952Z,53.47
2023-03-27T17:41:55.392Z,53.41
2023-03-27T17:44:24.467Z,52.53
2023-03-27T17:46:53.181Z,52.47
2023-03-27T17:49:23.198Z,52.36
2023-03-27T17:51:53.231Z,51.75
2023-03-27T17:54:27.545Z,51.82
2023-03-27T17:56:58.876Z,52.08
2023-03-27T17:59:27.836Z,52.24
2023-03-27T18:01:56.255Z,52.86
2023-03-27T18:04:32.646Z,52.85
2023-03-27T18:07:02.892Z,54.22
2023-03-27T18:09:37.021Z,54.15
2023-03-27T18:12:07.361Z,54.62
2023-03-27T18:14:38.915Z,55.00
2023-03-27T18:17:07.765Z,54.98
2023-03-27T18:19:40.222Z,54.94
2023-03-27T18:22:12.230Z,54.99
2023-03-27T18:24:40.695Z,55.82
2023-03-27T18:27:09.210Z,55.21
2023-03-27T18:29:38.329Z,55.61
2023-03-27T18:32:06.939Z,56.09
2023-03-27T18:34:36.044Z,56.61
2023-03-27T18:37:08.876Z,56.33
2023-03-27T18:39:37.797Z,57.13
2023-03-27T18:42:06.886Z,59.35
2023-03-27T18:44:43.884Z,60.97
2023-03-27T18:47:13.471Z,62.11
2023-03-27T18:49:44.301Z,62.97
2023-03-27T18:52:14.841Z,63.79
2023-03-27T18:54:43.507Z,64.64
2023-03-27T18:57:12.847Z,65.23
2023-03-27T18:59:41.247Z,64.90
2023-03-27T19:02:10.881Z,65.42
2023-03-27T19:04:39.336Z,65.85
2023-03-27T19:07:08.824Z,66.44
2023-03-27T19:09:41.692Z,66.50
2023-03-27T19:12:11.251Z,66.16
2023-03-27T19:15:02.183Z,66.42
2023-03-27T19:17:56.736Z,65.97
2023-03-27T19:20:47.585Z,66.68
2023-03-27T19:23:38.498Z,66.06
2023-03-27T19:26:14.862Z,65.25
2023-03-27T19:28:47.502Z,65.75
2023-03-27T19:31:16.899Z,65.69
2023-03-27T19:33:45.747Z,66.06
2023-03-27T19:36:17.311Z,65.79
2023-03-27T19:38:45.932Z,65.72
2023-03-27T19:41:15.694Z,65.65
2023-03-27T19:43:44.629Z,65.22
2023-03-27T19:46:16.486Z,65.25
2023-03-27T19:48:53.079Z,64.50
2023-03-27T19:51:50.740Z,64.07
2023-03-27T19:54:19.180Z,63.42
2023-03-27T19:56:49.297Z,63.62
2023-03-27T19:59:29.846Z,63.67
2023-03-27T20:01:59.538Z,63.96
2023-03-27T20:04:30.488Z,64.01
2023-03-27T20:07:02.188Z,63.85
2023-03-27T20:09:31.430Z,64.36
2023-03-27T20:12:01.427Z,65.76
2023-03-27T20:14:33.174Z,65.85
2023-03-27T20:17:01.613Z,64.42
2023-03-27T20:19:31.531Z,65.05
2023-03-27T20:22:07.702Z,64.79
2023-03-27T20:24:36.369Z,64.84
2023-03-27T20:27:07.179Z,65.14
2023-03-27T20:29:36.877Z,64.72
2023-03-27T20:32:08.218Z,65.26
2023-03-27T20:34:38.403Z,65.44
2023-03-27T20:37:12.716Z,65.81
2023-03-27T20:39:44.652Z,66.32
2023-03-27T20:42:16.877Z,66.54
2023-03-27T20:44:46.989Z,65.89
2023-03-27T20:47:21.363Z,66.08
2023-03-27T20:49:50.147Z,66.64
2023-03-27T20:52:22.695Z,66.93
2023-03-27T20:54:51.519Z,67.14
2023-03-27T20:57:22.786Z,66.85
2023-03-27T20:59:51.470Z,67.94
2023-03-27T21:02:22.184Z,68.70
2023-03-27T21:04:51.142Z,68.29
2023-03-27T21:07:19.602Z,68.70
2023-03-27T21:09:48.309Z,68.91
2023-03-27T21:12:17.082Z,69.43
2023-03-27T21:14:47.167Z,68.83
2023-03-27T21:17:16.405Z,69.35
2023-03-27T21:19:49.556Z,69.41
2023-03-27T21:22:18.129Z,68.92
2023-03-27T21:24:46.550Z,69.07
2023-03-27T21:27:17.045Z,69.68
2023-03-27T21:29:47.293Z,69.64
2023-03-27T21:32:18.198Z,69.87
2023-03-27T21:34:47.057Z,69.41
2023-03-27T21:37:15.825Z,69.87
2023-03-27T21:39:44.271Z,69.28
2023-03-27T21:42:12.820Z,69.22
2023-03-27T21:44:47.026Z,68.95
2023-03-27T21:47:19.532Z,69.53
2023-03-27T21:49:51.055Z,69.31
2023-03-27T21:52:19.478Z,69.38
2023-03-27T21:55:00.454Z,69.55
2023-03-27T21:57:31.151Z,70.15
2023-03-27T21:59:59.820Z,69.84
2023-03-27T22:02:29.891Z,70.63
2023-03-27T22:04:58.395Z,70.48
2023-03-27T22:07:27.038Z,69.90
2023-03-27T22:09:55.382Z,70.57
2023-03-27T22:12:24.050Z,70.48
2023-03-27T22:14:52.732Z,70.74
2023-03-27T22:17:21.770Z,70.75
2023-03-27T22:19:52.838Z,71.24
2023-03-27T22:22:21.335Z,70.75
2023-03-27T22:24:50.615Z,70.29
2023-03-27T22:27:22.374Z,70.77
2023-03-27T22:29:50.930Z,72.49
2023-03-27T22:32:19.368Z,71.66
2023-03-27T22:34:51.850Z,71.42
2023-03-27T22:37:20.883Z,71.45
2023-03-27T22:39:49.364Z,71.47
2023-03-27T22:42:17.773Z,70.99
2023-03-27T22:44:46.209Z,71.56
2023-03-27T22:47:15.690Z,71.56
2023-03-27T22:49:44.383Z,71.61
2023-03-27T22:52:14.138Z,71.20
2023-03-27T22:54:42.826Z,71.33
2023-03-27T22:57:11.902Z,71.77
2023-03-27T22:59:41.981Z,71.65
2023-03-27T23:02:10.435Z,71.28
2023-03-27T23:04:39.067Z,71.46
2023-03-27T23:07:07.515Z,70.84
2023-03-27T23:09:37.824Z,70.89
2023-03-27T23:12:08.185Z,71.11
2023-03-27T23:14:36.672Z,71.07
2023-03-27T23:17:05.122Z,70.84
2023-03-27T23:19:33.718Z,70.87
2023-03-27T23:22:02.214Z,71.32
2023-03-27T23:24:31.100Z,71.49
2023-03-27T23:27:01.000Z,71.31
2023-03-27T23:29:30.258Z,71.36
2023-03-27T23:31:58.988Z,71.90
2023-03-27T23:34:29.954Z,71.70
2023-03-27T23:36:59.824Z,72.18
2023-03-27T23:39:28.599Z,71.90
2023-03-27T23:41:56.940Z,71.67
2023-03-27T23:44:29.280Z,71.51
2023-03-27T23:46:57.718Z,71.62
2023-03-27T23:49:26.216Z,71.69
2023-03-27T23:51:55.320Z,71.98
2023-03-27T23:54:27.289Z,71.83
2023-03-27T23:56:55.659Z,72.01
2023-03-27T23:59:24.125Z,71.79
